Time;durP1;ratioP1;P1;durP2;ratioP2;P2;SDS_P1;SDS_P2;PMS_P1;PMS_P2;Temp;Humidity;BMP_temperature;BMP_pressure;BME280_temperature;BME280_humidity;BME280_pressure;Samples;Min_cycle;Max_cycle;Signal;HPM_P1;HPM_P2
2022/10/22 00:00:02;;;;;;;2.43;1.50;;;13.60;99.90;;;;;;482084;246;27926;-69
2022/10/22 00:02:06;;;;;;;2.10;1.90;;;13.60;99.90;;;;;;482068;246;28160;-70
2022/10/22 00:04:05;;;;;;;1.80;1.70;;;13.60;99.90;;;;;;481954;246;28411;-71
2022/10/22 00:06:06;;;;;;;1.60;1.50;;;13.60;99.90;;;;;;482047;246;28290;-74
2022/10/22 00:08:07;;;;;;;2.23;2.03;;;13.60;99.90;;;;;;482092;245;28164;-72
2022/10/22 00:10:09;;;;;;;1.80;1.67;;;13.50;99.90;;;;;;482090;245;28186;-69
2022/10/22 00:12:10;;;;;;;1.57;1.40;;;13.50;99.90;;;;;;482097;245;28378;-70
2022/10/22 00:14:11;;;;;;;2.00;1.73;;;13.50;99.90;;;;;;482101;245;28141;-70
2022/10/22 00:16:12;;;;;;;1.60;1.50;;;13.50;99.90;;;;;;482025;246;28963;-71
2022/10/22 00:18:14;;;;;;;1.43;1.33;;;13.50;99.90;;;;;;482207;244;28652;-71
2022/10/22 00:20:16;;;;;;;3.53;1.60;;;;;;;;;;481213;245;28716;-70
2022/10/22 00:22:18;;;;;;;1.50;1.40;;;;;;;;;;479821;247;26605;-69
2022/10/22 00:24:20;;;;;;;2.17;1.70;;;13.40;99.90;;;;;;482018;245;27495;-71
2022/10/22 00:26:21;;;;;;;2.00;1.20;;;13.50;99.90;;;;;;481736;245;28172;-70
2022/10/22 00:28:22;;;;;;;1.20;1.20;;;13.50;99.90;;;;;;481768;245;28103;-71
2022/10/22 00:30:23;;;;;;;1.57;1.47;;;13.50;99.90;;;;;;481763;239;28131;-70
2022/10/22 00:32:25;;;;;;;2.83;1.50;;;13.50;99.90;;;;;;481770;245;28385;-70
2022/10/22 00:34:26;;;;;;;2.13;1.30;;;13.50;99.90;;;;;;481753;245;28299;-71
2022/10/22 00:36:27;;;;;;;1.87;1.50;;;13.50;99.90;;;;;;481712;244;28037;-69
2022/10/22 00:38:28;;;;;;;1.50;1.40;;;13.50;99.90;;;;;;481767;245;28265;-70
2022/10/22 00:40:30;;;;;;;2.50;1.50;;;13.50;99.90;;;;;;481771;245;28512;-69
2022/10/22 00:42:31;;;;;;;1.40;1.30;;;13.50;99.90;;;;;;481773;245;27939;-70
2022/10/22 00:44:32;;;;;;;1.63;1.53;;;13.50;99.90;;;;;;479979;247;28515;-72
2022/10/22 00:46:33;;;;;;;2.90;1.40;;;13.50;99.90;;;;;;479797;247;28847;-70
2022/10/22 00:48:35;;;;;;;1.30;1.20;;;13.50;99.90;;;;;;479829;248;28961;-72
2022/10/22 00:50:36;;;;;;;1.73;1.47;;;13.50;99.90;;;;;;479829;247;28026;-70
2022/10/22 00:52:37;;;;;;;1.30;1.30;;;13.50;99.90;;;;;;479831;247;28063;-69
2022/10/22 00:54:38;;;;;;;1.50;1.40;;;13.50;99.90;;;;;;479826;247;28065;-71
2022/10/22 00:56:40;;;;;;;2.10;1.23;;;13.50;99.90;;;;;;479775;247;28036;-69
2022/10/22 00:58:41;;;;;;;1.30;1.20;;;13.50;99.90;;;;;;479810;248;28135;-70
2022/10/22 01:00:42;;;;;;;2.50;1.30;;;13.50;99.90;;;;;;479827;247;28286;-70
2022/10/22 01:02:45;;;;;;;4.37;1.30;;;;;;;;;;479810;247;28458;-70
2022/10/22 01:04:46;;;;;;;1.93;1.30;;;13.50;99.90;;;;;;479825;247;27262;-70
2022/10/22 01:06:47;;;;;;;1.80;1.30;;;13.50;99.90;;;;;;479783;247;28157;-71
2022/10/22 01:08:48;;;;;;;1.60;1.50;;;13.50;99.90;;;;;;481642;246;28064;-70
2022/10/22 01:10:50;;;;;;;1.50;1.40;;;13.50;99.90;;;;;;481761;245;28323;-69
2022/10/22 01:12:51;;;;;;;1.33;1.23;;;13.50;99.90;;;;;;481783;245;28072;-70
2022/10/22 01:14:52;;;;;;;1.27;1.27;;;13.50;99.90;;;;;;481759;246;28059;-70
2022/10/22 01:16:53;;;;;;;1.40;1.40;;;13.50;99.90;;;;;;481722;243;28156;-70
2022/10/22 01:18:55;;;;;;;1.40;1.30;;;13.50;99.90;;;;;;481751;246;28421;-72
2022/10/22 01:20:56;;;;;;;1.90;1.60;;;13.50;99.90;;;;;;481164;245;28523;-69
2022/10/22 01:22:57;;;;;;;1.50;1.40;;;13.50;99.90;;;;;;479365;245;28508;-70
2022/10/22 01:24:58;;;;;;;1.50;1.40;;;13.60;99.90;;;;;;479305;245;29106;-70
2022/10/22 01:27:00;;;;;;;2.77;1.50;;;13.60;99.90;;;;;;479327;247;28520;-70
2022/10/22 01:29:01;;;;;;;1.50;1.30;;;13.60;99.90;;;;;;479370;245;28057;-72
2022/10/22 01:31:02;;;;;;;2.00;1.50;;;13.50;99.90;;;;;;479364;245;28064;-70
2022/10/22 01:33:03;;;;;;;1.43;1.30;;;13.60;99.90;;;;;;479363;246;28547;-70
2022/10/22 01:35:05;;;;;;;2.10;1.40;;;13.60;99.90;;;;;;479353;246;28306;-70
2022/10/22 01:37:06;;;;;;;4.30;1.80;;;13.60;99.90;;;;;;479323;247;28068;-71
2022/10/22 01:39:07;;;;;;;1.67;1.47;;;13.50;99.90;;;;;;481399;245;28056;-72
2022/10/22 01:41:09;;;;;;;1.60;1.50;;;13.50;99.90;;;;;;481317;246;28713;-69
2022/10/22 01:43:10;;;;;;;1.63;1.37;;;13.50;99.90;;;;;;479439;245;28316;-69
2022/10/22 01:45:12;;;;;;;3.03;1.20;;;;;;;;;;479375;245;28496;-70
2022/10/22 01:47:14;;;;;;;1.87;1.33;;;13.40;99.90;;;;;;479323;247;26613;-72
2022/10/22 01:49:15;;;;;;;1.50;1.40;;;13.50;99.90;;;;;;479374;245;28063;-71
2022/10/22 01:51:17;;;;;;;1.53;1.17;;;;;;;;;;479408;246;28052;-70
2022/10/22 01:53:18;;;;;;;1.10;1.10;;;13.50;99.90;;;;;;479356;247;28012;-71
2022/10/22 01:55:20;;;;;;;1.10;1.00;;;13.50;99.90;;;;;;481330;245;27945;-72
2022/10/22 01:57:21;;;;;;;1.20;1.10;;;13.50;99.90;;;;;;481276;244;27947;-70
2022/10/22 01:59:22;;;;;;;1.47;1.30;;;13.50;99.90;;;;;;481338;242;28309;-70
2022/10/22 02:01:23;;;;;;;1.60;1.50;;;13.50;99.90;;;;;;479397;246;28049;-69
2022/10/22 02:03:25;;;;;;;1.13;1.10;;;13.50;99.90;;;;;;479345;247;28268;-70
2022/10/22 02:05:27;;;;;;;1.00;1.00;;;;;;;;;;481352;244;28282;-69
2022/10/22 02:07:28;;;;;;;0.90;0.90;;;13.40;99.90;;;;;;481291;245;27391;-71
2022/10/22 02:09:29;;;;;;;1.30;1.10;;;13.40;99.90;;;;;;479367;246;28073;-69
2022/10/22 02:11:31;;;;;;;1.30;1.20;;;13.40;99.90;;;;;;479359;247;28061;-71
2022/10/22 02:13:32;;;;;;;2.40;1.20;;;13.40;99.90;;;;;;479413;246;28080;-71
2022/10/22 02:15:33;;;;;;;1.10;1.10;;;13.40;99.90;;;;;;479405;245;28063;-70
2022/10/22 02:17:34;;;;;;;0.97;0.97;;;13.30;99.90;;;;;;479416;245;28391;-71
2022/10/22 02:19:36;;;;;;;1.17;1.00;;;13.30;99.90;;;;;;479415;245;28098;-71
2022/10/22 02:21:37;;;;;;;2.80;1.20;;;13.30;99.90;;;;;;479699;246;28513;-70
2022/10/22 02:23:38;;;;;;;4.63;1.10;;;13.30;99.90;;;;;;482534;246;28281;-70
2022/10/22 02:25:39;;;;;;;1.07;1.07;;;13.30;99.90;;;;;;482539;246;27954;-70
2022/10/22 02:27:41;;;;;;;1.33;1.10;;;13.30;99.90;;;;;;482481;246;28672;-70
2022/10/22 02:29:42;;;;;;;0.90;0.90;;;13.30;99.90;;;;;;482538;246;28388;-69
2022/10/22 02:31:43;;;;;;;1.13;0.80;;;13.30;99.90;;;;;;482534;246;28575;-70
2022/10/22 02:33:44;;;;;;;1.13;0.83;;;13.30;99.90;;;;;;482543;246;28109;-69
2022/10/22 02:35:46;;;;;;;1.20;1.00;;;13.30;99.90;;;;;;482536;246;28141;-70
2022/10/22 02:37:47;;;;;;;0.93;0.83;;;13.30;99.90;;;;;;482502;246;28377;-70
2022/10/22 02:39:48;;;;;;;1.33;1.00;;;13.30;99.90;;;;;;482533;246;28086;-69
2022/10/22 02:41:49;;;;;;;0.90;0.90;;;13.30;99.90;;;;;;482522;246;28309;-72
2022/10/22 02:43:51;;;;;;;1.00;1.00;;;13.30;99.90;;;;;;482514;246;28115;-70
2022/10/22 02:45:52;;;;;;;2.20;1.00;;;13.20;99.90;;;;;;482527;246;28304;-70
2022/10/22 02:47:53;;;;;;;0.90;0.90;;;13.20;99.90;;;;;;482491;246;28292;-71
2022/10/22 02:49:54;;;;;;;1.00;1.00;;;13.20;99.90;;;;;;482529;246;28306;-69
2022/10/22 02:51:56;;;;;;;1.40;0.87;;;13.10;99.90;;;;;;482540;246;28784;-70
2022/10/22 02:53:58;;;;;;;1.00;1.00;;;;;;;;;;482531;246;28513;-69
2022/10/22 02:55:59;;;;;;;1.20;1.10;;;13.10;99.90;;;;;;482529;246;27100;-71
2022/10/22 02:58:01;;;;;;;2.10;0.90;;;13.20;99.90;;;;;;482491;246;28162;-70
2022/10/22 03:00:02;;;;;;;1.47;0.97;;;13.10;99.90;;;;;;482527;246;28087;-70
2022/10/22 03:02:03;;;;;;;0.87;0.87;;;13.10;99.90;;;;;;482535;246;28273;-69
2022/10/22 03:04:04;;;;;;;1.00;1.00;;;13.10;99.90;;;;;;482526;246;28853;-70
2022/10/22 03:06:06;;;;;;;1.00;1.00;;;13.10;99.90;;;;;;482500;246;28447;-75
2022/10/22 03:08:07;;;;;;;2.93;1.10;;;13.10;99.90;;;;;;482501;246;28779;-70
2022/10/22 03:10:09;;;;;;;2.30;1.10;;;;;;;;;;482530;246;28678;-69
2022/10/22 03:12:11;;;;;;;1.00;0.90;;;13.00;99.90;;;;;;482533;246;27068;-70
2022/10/22 03:14:12;;;;;;;1.80;1.10;;;12.90;99.90;;;;;;482525;246;28215;-71
2022/10/22 03:16:13;;;;;;;3.63;0.90;;;12.90;99.90;;;;;;482483;246;28162;-70
2022/10/22 03:18:14;;;;;;;6.17;1.10;;;12.80;99.90;;;;;;482530;246;28682;-70
2022/10/22 03:20:16;;;;;;;0.90;0.90;;;12.80;99.90;;;;;;482531;246;28658;-69
2022/10/22 03:22:17;;;;;;;1.00;1.00;;;12.80;99.90;;;;;;482502;246;28553;-70
2022/10/22 03:24:18;;;;;;;1.97;1.20;;;12.80;99.90;;;;;;482518;246;28056;-71
2022/10/22 03:26:21;;;;;;;1.00;1.00;;;;;;;;;;482479;246;28090;-70
2022/10/22 03:28:22;;;;;;;0.80;0.80;;;12.70;99.90;;;;;;482512;246;27087;-69
2022/10/22 03:30:24;;;;;;;0.90;0.90;;;;;;;;;;482541;246;28590;-71
2022/10/22 03:32:25;;;;;;;0.90;0.90;;;12.60;99.90;;;;;;482531;246;27173;-70
2022/10/22 03:34:27;;;;;;;3.13;1.10;;;12.60;99.90;;;;;;482523;246;27954;-70
2022/10/22 03:36:28;;;;;;;0.80;0.80;;;12.60;99.90;;;;;;482487;246;27975;-69
2022/10/22 03:38:29;;;;;;;0.90;0.90;;;12.60;99.90;;;;;;482530;246;28176;-70
2022/10/22 03:40:30;;;;;;;1.37;0.80;;;12.60;99.90;;;;;;482520;245;28079;-71
2022/10/22 03:42:32;;;;;;;0.80;0.80;;;12.50;99.90;;;;;;482529;246;28204;-70
2022/10/22 03:44:33;;;;;;;1.00;1.00;;;12.50;99.90;;;;;;482519;246;28411;-70
2022/10/22 03:46:34;;;;;;;0.90;0.90;;;12.40;99.90;;;;;;482482;246;28664;-70
2022/10/22 03:48:35;;;;;;;1.10;1.00;;;12.40;99.90;;;;;;482527;246;28625;-70
2022/10/22 03:50:37;;;;;;;1.10;1.00;;;12.40;99.90;;;;;;482516;246;28184;-72
2022/10/22 03:52:38;;;;;;;0.80;0.80;;;12.40;99.90;;;;;;482537;246;27973;-69
2022/10/22 03:54:39;;;;;;;1.63;1.00;;;12.40;99.90;;;;;;482520;246;28076;-71
2022/10/22 03:56:40;;;;;;;1.03;1.03;;;12.30;99.90;;;;;;482491;246;27843;-69
2022/10/22 03:58:42;;;;;;;0.90;0.90;;;12.30;99.90;;;;;;482528;246;28098;-70
2022/10/22 04:00:43;;;;;;;1.47;0.90;;;12.30;99.90;;;;;;482527;246;28119;-71
2022/10/22 04:02:44;;;;;;;0.90;0.90;;;12.30;99.90;;;;;;482521;246;27975;-70
2022/10/22 04:04:46;;;;;;;0.90;0.90;;;12.30;99.90;;;;;;482518;246;27857;-72
2022/10/22 04:06:47;;;;;;;5.17;1.83;;;12.30;99.90;;;;;;482477;246;28193;-70
2022/10/22 04:08:49;;;;;;;0.90;0.90;;;;;;;;;;482512;246;28627;-70
2022/10/22 04:10:51;;;;;;;1.10;1.10;;;12.30;99.90;;;;;;482528;246;27085;-69
2022/10/22 04:12:52;;;;;;;1.40;1.13;;;12.30;99.90;;;;;;482531;246;27984;-70
2022/10/22 04:14:53;;;;;;;0.97;0.97;;;12.20;99.90;;;;;;482520;246;28175;-69
2022/10/22 04:16:54;;;;;;;1.07;1.00;;;12.20;99.90;;;;;;482472;246;27984;-70
2022/10/22 04:18:55;;;;;;;1.20;1.10;;;12.20;99.90;;;;;;482508;246;27972;-70
2022/10/22 04:20:57;;;;;;;1.17;1.10;;;12.20;99.90;;;;;;482502;246;27934;-70
2022/10/22 04:22:58;;;;;;;0.80;0.80;;;12.20;99.90;;;;;;482515;246;28328;-70
2022/10/22 04:24:59;;;;;;;0.90;0.90;;;12.10;99.90;;;;;;482512;246;28688;-69
2022/10/22 04:27:00;;;;;;;1.13;0.90;;;12.10;99.90;;;;;;482485;246;28519;-70
2022/10/22 04:29:02;;;;;;;0.80;0.80;;;12.10;99.90;;;;;;482522;246;28051;-71
2022/10/22 04:31:03;;;;;;;0.97;0.97;;;12.10;99.90;;;;;;482528;246;27851;-70
2022/10/22 04:33:04;;;;;;;0.90;0.90;;;12.10;99.90;;;;;;482518;246;27991;-70
2022/10/22 04:35:05;;;;;;;0.80;0.80;;;12.10;99.90;;;;;;482528;246;28066;-69
2022/10/22 04:37:07;;;;;;;2.63;1.13;;;12.10;99.90;;;;;;482476;246;27865;-69
2022/10/22 04:39:08;;;;;;;2.93;1.70;;;12.00;99.90;;;;;;482514;246;27954;-72
2022/10/22 04:41:09;;;;;;;0.80;0.80;;;12.00;99.90;;;;;;482525;246;27917;-71
2022/10/22 04:43:10;;;;;;;1.20;1.10;;;12.00;99.90;;;;;;482523;246;27937;-69
2022/10/22 04:45:12;;;;;;;1.00;1.00;;;12.00;99.90;;;;;;482505;246;28177;-69
2022/10/22 04:47:13;;;;;;;0.90;0.90;;;12.00;99.90;;;;;;482474;246;28559;-70
2022/10/22 04:49:14;;;;;;;0.90;0.90;;;11.90;99.90;;;;;;482519;246;28454;-71
2022/10/22 04:51:15;;;;;;;1.63;1.13;;;11.90;99.90;;;;;;482520;246;28524;-70
2022/10/22 04:53:17;;;;;;;1.17;1.00;;;11.90;99.90;;;;;;482523;246;28566;-70
2022/10/22 04:55:18;;;;;;;2.20;1.07;;;12.00;99.90;;;;;;482524;246;27978;-70
2022/10/22 04:57:19;;;;;;;1.00;1.00;;;11.90;99.90;;;;;;482482;246;28119;-70
2022/10/22 04:59:20;;;;;;;1.40;1.30;;;11.90;99.90;;;;;;482521;246;27845;-71
2022/10/22 05:01:22;;;;;;;1.10;1.10;;;11.90;99.90;;;;;;482511;246;27927;-69
2022/10/22 05:03:23;;;;;;;1.07;1.07;;;11.90;99.90;;;;;;482517;246;28167;-70
2022/10/22 05:05:24;;;;;;;1.70;1.00;;;11.90;99.90;;;;;;482511;246;27936;-69
2022/10/22 05:07:25;;;;;;;1.10;1.00;;;11.80;99.90;;;;;;482461;246;27969;-70
2022/10/22 05:09:27;;;;;;;1.17;1.17;;;11.80;99.90;;;;;;482518;246;28176;-71
2022/10/22 05:11:28;;;;;;;1.00;1.00;;;11.80;99.90;;;;;;482520;246;28068;-70
2022/10/22 05:13:29;;;;;;;1.00;1.00;;;11.80;99.90;;;;;;482524;246;28295;-69
2022/10/22 05:15:30;;;;;;;1.00;1.00;;;11.70;99.90;;;;;;482520;246;28790;-70
2022/10/22 05:17:32;;;;;;;1.60;1.10;;;11.70;99.90;;;;;;482475;246;28551;-70
2022/10/22 05:19:33;;;;;;;1.13;0.97;;;11.70;99.90;;;;;;482516;246;28024;-70
2022/10/22 05:21:34;;;;;;;0.97;0.97;;;11.60;99.90;;;;;;482533;246;27949;-70
2022/10/22 05:23:36;;;;;;;1.07;1.00;;;11.60;99.90;;;;;;482507;246;27980;-70
2022/10/22 05:25:37;;;;;;;1.27;1.10;;;11.50;99.90;;;;;;482504;246;27882;-70
2022/10/22 05:27:38;;;;;;;1.00;1.00;;;11.50;99.90;;;;;;482476;246;27920;-69
2022/10/22 05:29:39;;;;;;;0.80;0.80;;;11.50;99.90;;;;;;482527;246;27934;-71
2022/10/22 05:31:41;;;;;;;0.90;0.90;;;11.50;99.90;;;;;;482518;246;27927;-69
2022/10/22 05:33:42;;;;;;;0.90;0.90;;;11.50;99.90;;;;;;482514;246;27926;-71
2022/10/22 05:35:43;;;;;;;1.20;1.20;;;11.50;99.90;;;;;;482511;246;27951;-69
2022/10/22 05:37:44;;;;;;;1.00;1.00;;;11.50;99.90;;;;;;482468;246;28367;-70
2022/10/22 05:39:46;;;;;;;1.20;1.20;;;11.40;99.90;;;;;;482517;246;28332;-71
2022/10/22 05:41:47;;;;;;;0.90;0.90;;;11.40;99.90;;;;;;482537;246;28315;-70
2022/10/22 05:43:48;;;;;;;1.00;1.00;;;11.40;99.90;;;;;;482514;246;27870;-70
2022/10/22 05:45:49;;;;;;;0.90;0.90;;;11.40;99.90;;;;;;482511;246;27820;-69
2022/10/22 05:47:51;;;;;;;0.90;0.90;;;11.40;99.90;;;;;;482469;246;27843;-70
2022/10/22 05:49:52;;;;;;;2.97;1.03;;;11.30;99.90;;;;;;482508;246;27809;-70
2022/10/22 05:51:53;;;;;;;1.00;1.00;;;11.40;99.90;;;;;;482511;246;27781;-70
2022/10/22 05:53:54;;;;;;;1.20;1.10;;;11.40;99.90;;;;;;482512;246;27863;-70
2022/10/22 05:55:56;;;;;;;1.00;1.00;;;11.40;99.90;;;;;;482519;246;27930;-69
2022/10/22 05:57:57;;;;;;;1.03;0.93;;;11.40;99.90;;;;;;482475;246;27962;-70
2022/10/22 05:59:58;;;;;;;1.53;1.00;;;11.40;99.90;;;;;;482510;246;27817;-70
2022/10/22 06:01:59;;;;;;;0.93;0.93;;;11.30;99.90;;;;;;482514;246;28407;-69
2022/10/22 06:04:01;;;;;;;1.10;1.10;;;11.30;99.90;;;;;;482506;246;28422;-70
2022/10/22 06:06:02;;;;;;;1.17;1.17;;;11.30;99.90;;;;;;482483;246;28548;-70
2022/10/22 06:08:03;;;;;;;1.10;1.00;;;11.30;99.90;;;;;;482484;246;28534;-70
2022/10/22 06:10:04;;;;;;;1.10;1.10;;;11.30;99.90;;;;;;482513;246;27933;-71
2022/10/22 06:12:09;;;;;;;0.80;0.80;;;11.30;99.90;;;;;;482517;246;27697;-69
2022/10/22 06:14:07;;;;;;;0.83;0.83;;;11.30;99.90;;;;;;482304;246;27647;-70
2022/10/22 06:16:08;;;;;;;1.00;1.00;;;11.30;99.90;;;;;;482469;246;27859;-69
2022/10/22 06:18:10;;;;;;;1.40;1.20;;;11.40;99.90;;;;;;482513;246;27735;-69
2022/10/22 06:20:11;;;;;;;1.10;1.00;;;11.40;99.90;;;;;;482409;246;28022;-72
2022/10/22 06:22:12;;;;;;;1.00;1.00;;;11.40;99.90;;;;;;482506;246;27861;-69
2022/10/22 06:24:13;;;;;;;1.20;1.10;;;11.40;99.90;;;;;;482510;246;27733;-71
2022/10/22 06:26:16;;;;;;;0.97;0.97;;;11.40;99.90;;;;;;482474;246;27857;-72
2022/10/22 06:28:16;;;;;;;0.90;0.90;;;11.40;99.90;;;;;;482414;246;28431;-70
2022/10/22 06:30:17;;;;;;;0.90;0.90;;;11.40;99.90;;;;;;482509;246;28475;-71
2022/10/22 06:32:18;;;;;;;1.20;1.10;;;11.40;99.90;;;;;;482508;246;28090;-69
2022/10/22 06:34:19;;;;;;;4.93;1.20;;;11.40;99.90;;;;;;482512;246;27822;-70
2022/10/22 06:36:21;;;;;;;1.20;1.00;;;11.40;99.90;;;;;;482461;246;29779;-69
2022/10/22 06:38:22;;;;;;;1.07;1.07;;;11.40;99.90;;;;;;482511;246;27968;-72
2022/10/22 06:40:23;;;;;;;3.17;1.00;;;11.50;99.90;;;;;;482507;246;27962;-71
2022/10/22 06:42:24;;;;;;;1.23;1.20;;;11.40;99.90;;;;;;482500;246;27836;-69
2022/10/22 06:44:26;;;;;;;2.40;1.10;;;11.40;99.90;;;;;;482512;246;27718;-70
2022/10/22 06:46:27;;;;;;;1.10;1.07;;;11.40;99.90;;;;;;482458;246;27966;-71
2022/10/22 06:48:28;;;;;;;0.90;0.90;;;11.40;99.90;;;;;;482511;246;27969;-69
2022/10/22 06:50:29;;;;;;;0.90;0.90;;;11.40;99.90;;;;;;482503;246;27864;-71
2022/10/22 06:52:31;;;;;;;1.47;0.93;;;11.40;99.90;;;;;;482505;246;28461;-69
2022/10/22 06:54:32;;;;;;;1.00;1.00;;;11.50;99.90;;;;;;482500;246;28487;-70
2022/10/22 06:56:33;;;;;;;1.00;1.00;;;11.50;99.90;;;;;;482475;246;28221;-72
2022/10/22 06:58:34;;;;;;;0.90;0.90;;;11.50;99.90;;;;;;482509;246;28194;-69
2022/10/22 07:00:36;;;;;;;0.90;0.90;;;11.50;99.90;;;;;;482534;246;27705;-71
2022/10/22 07:02:37;;;;;;;0.80;0.80;;;11.50;99.90;;;;;;482536;246;27833;-70
2022/10/22 07:04:38;;;;;;;0.90;0.90;;;11.50;99.90;;;;;;482531;246;27628;-70
2022/10/22 07:06:39;;;;;;;0.80;0.80;;;11.50;99.90;;;;;;482486;246;27809;-71
2022/10/22 07:08:41;;;;;;;0.80;0.80;;;11.50;99.90;;;;;;482522;246;28016;-70
2022/10/22 07:10:42;;;;;;;0.80;0.80;;;11.60;99.90;;;;;;482530;246;27843;-70
2022/10/22 07:12:43;;;;;;;0.97;0.97;;;11.60;99.90;;;;;;482538;246;27931;-69
2022/10/22 07:14:44;;;;;;;0.80;0.80;;;11.60;99.90;;;;;;482537;246;27856;-70
2022/10/22 07:16:46;;;;;;;1.07;1.07;;;11.60;99.90;;;;;;482480;246;27711;-70
2022/10/22 07:18:47;;;;;;;1.10;1.10;;;11.60;99.90;;;;;;482525;246;28401;-69
2022/10/22 07:20:48;;;;;;;1.00;1.00;;;11.70;99.90;;;;;;482521;246;28427;-70
2022/10/22 07:22:49;;;;;;;0.90;0.90;;;11.60;99.90;;;;;;482535;246;28274;-69
2022/10/22 07:24:51;;;;;;;1.10;1.10;;;11.70;99.90;;;;;;482528;246;27725;-70
2022/10/22 07:26:52;;;;;;;0.93;0.90;;;11.70;99.90;;;;;;482481;246;28009;-72
2022/10/22 07:28:53;;;;;;;1.00;1.00;;;11.70;99.90;;;;;;482522;246;27854;-69
2022/10/22 07:30:54;;;;;;;0.90;0.90;;;11.70;99.90;;;;;;482531;246;27859;-72
2022/10/22 07:32:56;;;;;;;1.13;1.13;;;11.70;99.90;;;;;;482527;246;27940;-69
2022/10/22 07:34:57;;;;;;;1.10;1.00;;;11.70;99.90;;;;;;482519;246;27630;-70
2022/10/22 07:36:58;;;;;;;1.00;1.00;;;11.70;99.90;;;;;;482486;246;27685;-72
2022/10/22 07:38:59;;;;;;;1.13;1.13;;;11.80;99.90;;;;;;482527;246;27861;-70
2022/10/22 07:41:01;;;;;;;1.30;1.20;;;11.80;99.90;;;;;;482527;246;27985;-70
2022/10/22 07:43:02;;;;;;;0.90;0.90;;;11.80;99.90;;;;;;482516;243;28306;-69
2022/10/22 07:45:03;;;;;;;1.37;1.27;;;11.80;99.90;;;;;;482519;246;28564;-70
2022/10/22 07:47:04;;;;;;;1.47;1.00;;;11.90;99.90;;;;;;482473;246;28294;-72
2022/10/22 07:49:06;;;;;;;1.20;1.20;;;11.90;99.90;;;;;;482524;246;27974;-70
2022/10/22 07:51:07;;;;;;;1.10;1.10;;;11.90;99.90;;;;;;482533;246;27830;-70
2022/10/22 07:53:08;;;;;;;1.00;1.00;;;12.00;99.90;;;;;;482527;246;28006;-69
2022/10/22 07:55:09;;;;;;;1.40;1.00;;;12.00;99.90;;;;;;482527;246;27966;-70
2022/10/22 07:57:11;;;;;;;1.27;1.20;;;12.10;99.90;;;;;;482497;246;27922;-71
2022/10/22 07:59:12;;;;;;;1.30;1.30;;;12.10;99.90;;;;;;482532;246;28065;-70
2022/10/22 08:01:13;;;;;;;3.93;1.37;;;12.20;99.90;;;;;;482527;246;28168;-70
2022/10/22 08:03:14;;;;;;;1.60;1.20;;;12.20;99.90;;;;;;482521;246;27981;-70
2022/10/22 08:05:16;;;;;;;1.17;1.17;;;12.30;99.90;;;;;;482527;246;28098;-70
2022/10/22 08:07:17;;;;;;;1.20;1.17;;;12.30;99.90;;;;;;482482;246;28269;-71
2022/10/22 08:09:18;;;;;;;1.47;1.37;;;12.40;99.90;;;;;;482501;246;28571;-69
2022/10/22 08:11:19;;;;;;;1.83;1.10;;;12.40;99.90;;;;;;482529;246;28432;-70
2022/10/22 08:13:22;;;;;;;1.20;1.20;;;12.50;99.90;;;;;;482528;246;28580;-70
2022/10/22 08:15:24;;;;;;;1.37;1.27;;;12.60;99.90;;;;;;482489;246;28100;-70
2022/10/22 08:17:23;;;;;;;2.13;1.40;;;12.60;99.90;;;;;;482376;246;28088;-72
2022/10/22 08:19:24;;;;;;;3.13;1.37;;;12.70;99.90;;;;;;482515;246;28185;-70
2022/10/22 08:21:26;;;;;;;1.00;1.00;;;12.80;99.90;;;;;;482522;246;28119;-70
2022/10/22 08:23:28;;;;;;;1.23;1.20;;;;;;;;;;482523;246;27984;-69
2022/10/22 08:25:29;;;;;;;3.37;1.53;;;12.90;99.90;;;;;;482517;246;27545;-70
2022/10/22 08:27:31;;;;;;;1.20;1.20;;;13.00;99.90;;;;;;482489;246;28137;-71
2022/10/22 08:29:32;;;;;;;1.30;1.20;;;13.10;99.90;;;;;;482523;246;28051;-70
2022/10/22 08:31:33;;;;;;;2.13;1.40;;;13.10;99.90;;;;;;482525;246;28283;-70
2022/10/22 08:33:34;;;;;;;1.10;1.00;;;13.10;99.90;;;;;;482515;246;28198;-70
2022/10/22 08:35:36;;;;;;;3.33;1.67;;;13.10;99.90;;;;;;482524;246;28377;-72
2022/10/22 08:37:37;;;;;;;2.03;1.60;;;13.10;99.90;;;;;;482477;246;28273;-69
2022/10/22 08:39:38;;;;;;;1.30;1.30;;;13.10;99.90;;;;;;482521;246;28434;-70
2022/10/22 08:41:39;;;;;;;4.40;1.40;;;13.10;99.90;;;;;;482524;246;28289;-69
2022/10/22 08:43:41;;;;;;;1.20;1.20;;;13.10;99.90;;;;;;482527;246;27953;-70
2022/10/22 08:45:42;;;;;;;1.50;1.40;;;13.10;99.90;;;;;;482513;246;29074;-70
2022/10/22 08:47:43;;;;;;;1.20;1.20;;;13.10;99.90;;;;;;482474;246;28630;-70
2022/10/22 08:49:44;;;;;;;2.70;1.40;;;13.10;99.90;;;;;;482527;246;28485;-70
2022/10/22 08:51:46;;;;;;;1.37;1.30;;;13.10;99.90;;;;;;482513;246;28551;-70
2022/10/22 08:53:47;;;;;;;1.20;1.10;;;13.10;99.90;;;;;;482514;246;28066;-70
2022/10/22 08:55:48;;;;;;;1.50;1.40;;;13.20;99.90;;;;;;482511;246;28417;-70
2022/10/22 08:57:49;;;;;;;1.63;1.23;;;13.20;99.90;;;;;;482484;246;28195;-69
2022/10/22 08:59:51;;;;;;;1.63;1.53;;;13.20;99.90;;;;;;482510;246;27960;-72
2022/10/22 09:01:52;;;;;;;3.03;1.40;;;13.20;99.90;;;;;;482516;246;28242;-70
2022/10/22 09:03:53;;;;;;;1.70;1.60;;;13.30;99.90;;;;;;482513;246;28147;-69
2022/10/22 09:05:54;;;;;;;1.37;1.30;;;13.40;99.90;;;;;;482508;246;28424;-71
2022/10/22 09:07:56;;;;;;;1.80;1.47;;;13.50;99.90;;;;;;482493;246;27944;-69
2022/10/22 09:09:57;;;;;;;2.30;1.77;;;13.60;99.90;;;;;;482521;246;28793;-71
2022/10/22 09:12:01;;;;;;;1.70;1.60;;;13.60;99.90;;;;;;482509;246;29139;-70
2022/10/22 09:13:59;;;;;;;1.50;1.40;;;13.70;99.90;;;;;;482168;246;28690;-70
2022/10/22 09:16:01;;;;;;;3.27;1.50;;;13.70;99.90;;;;;;482507;244;28645;-71
2022/10/22 09:18:02;;;;;;;2.23;1.63;;;13.60;99.90;;;;;;482488;246;28530;-69
2022/10/22 09:20:03;;;;;;;2.50;1.77;;;13.70;99.90;;;;;;482517;246;27951;-70
2022/10/22 09:22:04;;;;;;;1.87;1.70;;;13.70;99.90;;;;;;482508;246;28204;-69
2022/10/22 09:24:06;;;;;;;1.80;1.70;;;13.70;99.90;;;;;;482518;246;28097;-70
2022/10/22 09:26:07;;;;;;;2.90;1.80;;;13.80;99.90;;;;;;482468;246;28215;-73
2022/10/22 09:28:08;;;;;;;1.60;1.50;;;13.90;99.90;;;;;;482514;246;28058;-70
2022/10/22 09:30:09;;;;;;;1.60;1.50;;;14.00;99.90;;;;;;482513;246;28325;-71
2022/10/22 09:32:11;;;;;;;1.70;1.60;;;14.10;99.90;;;;;;482526;246;28076;-70
2022/10/22 09:34:12;;;;;;;2.20;1.50;;;14.10;99.90;;;;;;482510;246;28097;-70
2022/10/22 09:36:13;;;;;;;2.23;1.40;;;14.10;99.90;;;;;;482471;246;28551;-71
2022/10/22 09:38:14;;;;;;;1.60;1.50;;;14.20;99.90;;;;;;482506;246;28576;-70
2022/10/22 09:40:16;;;;;;;1.37;1.27;;;14.30;99.90;;;;;;482509;246;28631;-70
2022/10/22 09:42:17;;;;;;;2.10;1.80;;;14.40;99.90;;;;;;482520;246;28181;-70
2022/10/22 09:44:18;;;;;;;2.30;1.60;;;14.50;99.90;;;;;;482511;246;28143;-71
2022/10/22 09:46:19;;;;;;;1.70;1.60;;;14.60;99.90;;;;;;482462;246;28093;-71
2022/10/22 09:48:25;;;;;;;3.23;1.83;;;14.60;99.90;;;;;;482513;246;28068;-70
2022/10/22 09:50:22;;;;;;;3.00;1.80;;;14.60;99.90;;;;;;482262;246;28209;-70
2022/10/22 09:52:23;;;;;;;4.77;1.70;;;14.60;99.90;;;;;;482515;246;28168;-70
2022/10/22 09:54:24;;;;;;;2.93;1.80;;;14.50;99.90;;;;;;482514;246;28253;-70
2022/10/22 09:56:26;;;;;;;2.27;2.07;;;14.50;99.90;;;;;;482470;246;28327;-71
2022/10/22 09:58:27;;;;;;;2.43;1.70;;;14.50;99.90;;;;;;482518;246;28090;-70
2022/10/22 10:00:28;;;;;;;3.13;1.63;;;14.50;99.90;;;;;;482516;246;28632;-70
2022/10/22 10:02:29;;;;;;;2.40;1.50;;;14.60;99.90;;;;;;482504;246;28635;-70
2022/10/22 10:04:32;;;;;;;1.47;1.37;;;;;;;;;;482514;246;28638;-71
2022/10/22 10:06:33;;;;;;;3.63;1.60;;;14.60;99.90;;;;;;482468;246;26371;-69
2022/10/22 10:10:46;;;;;;;4.13;1.57;;;14.80;99.90;;;;;;486520;243;28112;-72
2022/10/22 10:12:47;;;;;;;3.60;1.70;;;14.80;99.90;;;;;;486428;244;28286;-70
2022/10/22 10:14:48;;;;;;;2.70;1.30;;;15.00;99.90;;;;;;486424;243;28222;-70
2022/10/22 10:16:50;;;;;;;4.80;1.53;;;15.00;99.90;;;;;;486382;244;28096;-70
2022/10/22 10:18:51;;;;;;;1.87;1.60;;;15.10;99.90;;;;;;486429;243;28423;-71
2022/10/22 10:20:52;;;;;;;1.50;1.40;;;15.10;99.90;;;;;;486425;243;28314;-73
2022/10/22 10:22:53;;;;;;;2.60;1.60;;;15.20;99.90;;;;;;486448;243;28396;-71
2022/10/22 10:24:55;;;;;;;2.50;1.70;;;15.20;99.90;;;;;;486438;243;28324;-71
2022/10/22 10:26:56;;;;;;;1.70;1.30;;;15.20;99.90;;;;;;486384;244;28277;-70
2022/10/22 10:28:57;;;;;;;4.00;1.83;;;15.40;99.90;;;;;;486427;243;28506;-68
2022/10/22 10:30:59;;;;;;;3.80;1.30;;;15.60;99.90;;;;;;486444;243;28515;-69
2022/10/22 10:33:00;;;;;;;1.30;1.20;;;15.70;99.90;;;;;;486441;244;28718;-70
2022/10/22 10:35:01;;;;;;;1.40;1.40;;;15.70;99.90;;;;;;484932;243;29281;-69